createdAt,value
2023-03-26T00:01:28.487Z,70.60
2023-03-26T00:03:59.100Z,84.63
2023-03-26T00:06:31.721Z,75.28
2023-03-26T00:09:01.635Z,72.70
2023-03-26T00:11:32.334Z,67.75
2023-03-26T00:14:02.093Z,77.53
2023-03-26T00:16:34.186Z,85.28
2023-03-26T00:19:05.731Z,69.75
2023-03-26T00:21:35.618Z,70.50
2023-03-26T00:24:13.454Z,81.78
2023-03-26T00:26:43.373Z,70.55
2023-03-26T00:29:13.861Z,64.75
2023-03-26T00:31:47.763Z,70.15
2023-03-26T00:34:19.882Z,66.53
2023-03-26T00:36:49.683Z,68.50
2023-03-26T00:39:19.421Z,74.10
2023-03-26T00:41:49.516Z,70.38
2023-03-26T00:44:19.292Z,70.13
2023-03-26T00:46:49.418Z,69.38
2023-03-26T00:49:20.380Z,66.72
2023-03-26T00:51:50.087Z,72.28
2023-03-26T00:54:19.794Z,75.50
2023-03-26T00:56:49.559Z,67.07
2023-03-26T00:59:19.358Z,71.57
2023-03-26T01:01:49.003Z,72.13
2023-03-26T01:04:32.472Z,56.58
2023-03-26T01:07:05.785Z,59.05
2023-03-26T01:09:39.504Z,61.20
2023-03-26T01:12:13.198Z,61.72
2023-03-26T01:14:43.698Z,63.53
2023-03-26T01:17:15.524Z,64.93
2023-03-26T01:20:13.021Z,63.67
2023-03-26T01:22:47.883Z,67.00
2023-03-26T01:25:17.807Z,62.83
2023-03-26T01:27:52.375Z,68.63
2023-03-26T01:30:46.966Z,69.70
2023-03-26T01:33:38.326Z,61.55
2023-03-26T01:36:35.032Z,58.20
2023-03-26T01:39:40.811Z,51.05
2023-03-26T01:42:23.121Z,55.03
2023-03-26T01:45:10.149Z,54.33
2023-03-26T01:47:42.762Z,55.20
2023-03-26T01:50:13.052Z,51.17
2023-03-26T01:52:42.963Z,51.70
2023-03-26T01:55:14.363Z,49.10
2023-03-26T01:58:19.614Z,51.90
2023-03-26T02:01:04.617Z,63.10
2023-03-26T02:03:41.138Z,49.47
2023-03-26T02:06:39.300Z,47.50
2023-03-26T02:09:16.598Z,49.58
2023-03-26T02:11:47.360Z,49.55
2023-03-26T02:14:18.281Z,49.88
2023-03-26T02:16:48.495Z,50.83
2023-03-26T02:19:23.010Z,56.33
2023-03-26T02:21:53.356Z,54.47
2023-03-26T02:24:23.119Z,56.08
2023-03-26T02:26:52.956Z,47.97
2023-03-26T02:29:31.241Z,51.40
2023-03-26T02:32:01.513Z,58.50
2023-03-26T02:34:31.395Z,56.25
2023-03-26T02:37:01.136Z,60.08
2023-03-26T02:39:30.985Z,63.25
2023-03-26T02:42:00.858Z,56.85
2023-03-26T02:44:30.929Z,57.90
2023-03-26T02:47:00.788Z,59.53
2023-03-26T02:49:30.763Z,55.90
2023-03-26T02:52:01.233Z,62.72
2023-03-26T02:54:31.400Z,60.55
2023-03-26T02:57:01.337Z,59.90
2023-03-26T02:59:30.979Z,57.58
2023-03-26T03:02:00.768Z,59.30
2023-03-26T03:04:30.508Z,63.22
2023-03-26T03:07:01.657Z,63.40
2023-03-26T03:09:31.418Z,61.70
2023-03-26T03:12:01.171Z,58.63
2023-03-26T03:14:30.934Z,57.42
2023-03-26T03:17:00.673Z,53.03
2023-03-26T03:19:33.857Z,59.60
2023-03-26T03:22:03.537Z,61.75
2023-03-26T03:24:35.486Z,59.17
2023-03-26T03:27:05.997Z,60.75
2023-03-26T03:29:35.671Z,58.08
2023-03-26T03:32:12.980Z,58.83
2023-03-26T03:35:40.640Z,58.72
2023-03-26T03:38:14.365Z,55.55
2023-03-26T03:40:44.660Z,57.63
2023-03-26T03:43:14.437Z,56.60
2023-03-26T03:45:44.447Z,53.95
2023-03-26T03:48:14.409Z,54.58
2023-03-26T03:50:44.203Z,63.53
2023-03-26T03:53:17.649Z,56.15
2023-03-26T03:55:54.795Z,55.70
2023-03-26T03:58:26.534Z,53.90
2023-03-26T04:01:02.547Z,56.58
2023-03-26T04:03:33.393Z,58.58
2023-03-26T04:06:08.569Z,57.50
2023-03-26T04:08:38.588Z,53.13
2023-03-26T04:11:08.584Z,54.30
2023-03-26T04:13:41.020Z,56.75
2023-03-26T04:16:13.162Z,53.17
2023-03-26T04:18:44.785Z,50.75
2023-03-26T04:21:17.636Z,56.05
2023-03-26T04:23:53.526Z,58.03
2023-03-26T04:26:30.003Z,55.38
2023-03-26T04:29:07.168Z,52.63
2023-03-26T04:31:39.558Z,54.58
2023-03-26T04:34:22.669Z,52.22
2023-03-26T04:36:58.720Z,51.17
2023-03-26T04:39:32.721Z,55.88
2023-03-26T04:42:05.682Z,47.92
2023-03-26T04:44:38.165Z,50.75
2023-03-26T04:47:16.963Z,53.35
2023-03-26T04:49:56.854Z,50.78
2023-03-26T04:52:29.165Z,41.38
2023-03-26T04:55:02.118Z,49.40
2023-03-26T04:57:56.158Z,45.58
2023-03-26T05:00:35.963Z,50.72
2023-03-26T05:03:07.208Z,45.88
2023-03-26T05:05:40.499Z,45.42
2023-03-26T05:08:39.470Z,35.78
2023-03-26T05:11:13.244Z,36.15
2023-03-26T05:13:44.521Z,39.63
2023-03-26T05:16:14.230Z,33.80
2023-03-26T05:18:43.926Z,23.55
2023-03-26T05:21:13.643Z,25.60
2023-03-26T05:23:43.406Z,33.40
2023-03-26T05:26:13.242Z,34.33
2023-03-26T05:28:42.944Z,30.83
2023-03-26T05:31:13.161Z,23.10
2023-03-26T05:33:42.946Z,20.73
2023-03-26T05:36:17.585Z,28.52
2023-03-26T05:38:51.640Z,27.23
2023-03-26T05:41:21.450Z,30.92
2023-03-26T05:43:51.301Z,30.38
2023-03-26T05:46:21.991Z,24.73
2023-03-26T05:48:53.740Z,29.15
2023-03-26T05:51:25.142Z,36.00
2023-03-26T05:53:54.949Z,32.22
2023-03-26T05:56:25.147Z,28.33
2023-03-26T05:58:54.850Z,36.30
2023-03-26T06:01:27.237Z,31.85
2023-03-26T06:03:57.328Z,31.13
2023-03-26T06:06:27.747Z,35.70
2023-03-26T06:09:01.162Z,39.47
2023-03-26T06:11:33.783Z,40.42
2023-03-26T06:14:05.105Z,37.10
2023-03-26T06:16:35.683Z,35.20
2023-03-26T06:19:05.444Z,36.13
2023-03-26T06:21:35.304Z,34.28
2023-03-26T06:24:05.019Z,35.22
2023-03-26T06:26:34.667Z,39.53
2023-03-26T06:29:04.506Z,42.38
2023-03-26T06:31:34.201Z,35.85
2023-03-26T06:34:03.856Z,40.17
2023-03-26T06:36:33.852Z,39.42
2023-03-26T06:39:07.758Z,39.15
2023-03-26T06:41:38.326Z,41.92
2023-03-26T06:44:08.032Z,48.90
2023-03-26T06:46:37.989Z,45.20
2023-03-26T06:49:08.301Z,44.53
2023-03-26T06:51:40.217Z,46.33
2023-03-26T06:54:09.892Z,47.40
2023-03-26T06:56:39.876Z,49.28
2023-03-26T06:59:09.717Z,47.70
2023-03-26T07:01:39.484Z,51.63
2023-03-26T07:04:09.209Z,44.47
2023-03-26T07:06:38.973Z,47.67
2023-03-26T07:09:08.724Z,48.20
2023-03-26T07:11:38.436Z,43.95
2023-03-26T07:14:08.394Z,42.55
2023-03-26T07:16:38.164Z,43.45
2023-03-26T07:19:07.778Z,42.95
2023-03-26T07:21:37.797Z,41.45
2023-03-26T07:24:15.944Z,46.78
2023-03-26T07:27:12.250Z,40.00
2023-03-26T07:29:51.735Z,41.88
2023-03-26T07:32:30.743Z,46.80
2023-03-26T07:35:39.705Z,50.85
2023-03-26T07:38:37.952Z,45.30
2023-03-26T07:41:32.032Z,43.30
2023-03-26T07:44:29.257Z,43.70
2023-03-26T07:47:01.328Z,41.10
2023-03-26T07:49:33.124Z,45.15
2023-03-26T07:52:03.109Z,41.65
2023-03-26T07:54:32.885Z,41.10
2023-03-26T07:57:07.982Z,45.63
2023-03-26T08:00:02.012Z,51.03
2023-03-26T08:03:11.327Z,40.75
2023-03-26T08:06:05.969Z,42.33
2023-03-26T08:09:07.608Z,41.15
2023-03-26T08:12:02.764Z,45.10
2023-03-26T08:14:59.262Z,40.47
2023-03-26T08:17:55.182Z,41.70
2023-03-26T08:20:49.843Z,40.85
2023-03-26T08:23:50.907Z,44.33
2023-03-26T08:26:48.927Z,41.95
2023-03-26T08:29:59.736Z,38.10
2023-03-26T08:32:29.546Z,39.78
2023-03-26T08:35:01.784Z,42.22
2023-03-26T08:37:31.590Z,40.90
2023-03-26T08:52:44.328Z,38.97
2023-03-26T08:55:42.606Z,42.55
2023-03-26T08:58:51.979Z,38.15
2023-03-26T09:02:00.916Z,40.88
2023-03-26T09:05:05.979Z,40.80
2023-03-26T09:08:05.994Z,40.50
2023-03-26T09:11:15.078Z,39.97
2023-03-26T09:14:24.056Z,42.85
2023-03-26T09:17:25.576Z,44.55
2023-03-26T09:20:29.963Z,44.78
2023-03-26T09:23:38.911Z,43.47
2023-03-26T09:26:48.811Z,41.78
2023-03-26T09:29:57.821Z,40.35
2023-03-26T09:32:51.151Z,47.22
2023-03-26T09:36:00.215Z,48.47
2023-03-26T09:38:47.849Z,40.40
2023-03-26T09:41:57.024Z,45.90
2023-03-26T09:44:53.241Z,46.60
2023-03-26T09:47:54.657Z,46.60
2023-03-26T09:50:55.880Z,42.03
2023-03-26T09:54:05.171Z,47.83
2023-03-26T09:57:00.604Z,42.83
2023-03-26T09:59:59.606Z,42.83
2023-03-26T10:03:08.488Z,43.50
2023-03-26T10:05:55.818Z,40.33
2023-03-26T10:11:27.337Z,40.67
2023-03-26T10:14:26.488Z,44.30
2023-03-26T10:17:30.149Z,40.33
2023-03-26T10:20:29.398Z,44.97
2023-03-26T10:23:27.788Z,44.25
2023-03-26T10:26:29.229Z,41.95
2023-03-26T10:29:27.667Z,42.65
2023-03-26T10:32:19.964Z,42.85
2023-03-26T10:35:29.059Z,41.42
2023-03-26T10:38:16.456Z,36.17
2023-03-26T10:44:08.401Z,41.65
2023-03-26T10:47:10.099Z,38.33
2023-03-26T10:50:10.747Z,43.50
2023-03-26T10:53:03.860Z,44.90
2023-03-26T10:55:48.413Z,45.25
2023-03-26T10:58:48.480Z,47.25
2023-03-26T11:01:44.844Z,45.42
2023-03-26T11:04:41.694Z,49.55
2023-03-26T11:07:40.121Z,44.00
2023-03-26T11:10:28.743Z,42.97
2023-03-26T11:13:28.435Z,46.45
2023-03-26T11:16:06.556Z,48.08
2023-03-26T11:19:02.724Z,50.70
2023-03-26T11:24:53.339Z,45.92
2023-03-26T11:27:38.725Z,45.37
2023-03-26T11:30:43.211Z,47.35
2023-03-26T11:33:18.641Z,49.85
2023-03-26T11:35:52.522Z,52.72
2023-03-26T11:38:45.338Z,60.92
2023-03-26T11:41:30.189Z,52.45
2023-03-26T11:44:07.658Z,51.85
2023-03-26T11:46:41.978Z,55.20
2023-03-26T11:49:14.648Z,51.40
2023-03-26T11:51:47.329Z,53.38
2023-03-26T11:54:18.032Z,46.42
2023-03-26T11:57:16.532Z,49.50
2023-03-26T12:00:19.559Z,55.05
2023-03-26T12:02:51.085Z,60.15
2023-03-26T12:05:28.147Z,71.18
2023-03-26T12:08:00.796Z,66.88
2023-03-26T12:10:40.437Z,66.05
2023-03-26T12:13:49.162Z,53.20
2023-03-26T12:16:22.544Z,49.88
2023-03-26T12:19:20.903Z,60.17
2023-03-26T12:21:54.464Z,50.25
2023-03-26T12:24:37.683Z,58.92
2023-03-26T12:27:30.156Z,60.35
2023-03-26T12:30:14.742Z,54.60
2023-03-26T12:32:47.040Z,54.72
2023-03-26T12:35:20.566Z,59.88
2023-03-26T12:37:50.408Z,51.72
2023-03-26T12:40:37.440Z,60.03
2023-03-26T12:44:48.896Z,62.20
2023-03-26T12:47:56.075Z,59.45
2023-03-26T12:49:25.853Z,57.42
2023-03-26T12:52:21.431Z,52.97
2023-03-26T12:55:30.629Z,60.50
2023-03-26T12:58:39.963Z,60.60
2023-03-26T13:01:29.165Z,65.53
2023-03-26T13:04:15.763Z,58.33
2023-03-26T13:07:00.301Z,59.95
2023-03-26T13:09:59.688Z,70.85
2023-03-26T13:12:49.619Z,66.05
2023-03-26T13:15:46.256Z,59.90
2023-03-26T13:18:55.105Z,63.17
2023-03-26T13:22:03.772Z,60.13
2023-03-26T13:24:52.988Z,63.70
2023-03-26T13:27:50.234Z,58.42
2023-03-26T13:30:45.629Z,60.80
2023-03-26T13:33:45.274Z,81.38
2023-03-26T13:36:46.142Z,61.25
2023-03-26T13:39:26.195Z,63.47
2023-03-26T13:42:38.526Z,72.38
2023-03-26T13:45:41.704Z,67.65
2023-03-26T13:48:30.466Z,66.30
2023-03-26T13:51:13.122Z,65.22
2023-03-26T13:53:51.478Z,62.40
2023-03-26T13:56:28.387Z,61.97
2023-03-26T13:59:31.582Z,60.07
2023-03-26T14:02:07.959Z,59.47
2023-03-26T14:04:49.678Z,58.13
2023-03-26T14:07:31.216Z,69.80
2023-03-26T14:10:09.241Z,57.70
2023-03-26T14:13:11.044Z,67.60
2023-03-26T14:15:48.874Z,75.13
2023-03-26T14:18:50.479Z,60.85
2023-03-26T14:21:51.384Z,64.68
2023-03-26T14:24:47.244Z,61.63
2023-03-26T14:27:41.404Z,64.20
2023-03-26T14:30:41.275Z,70.97
2023-03-26T14:33:47.449Z,69.15
2023-03-26T14:36:55.403Z,61.63
2023-03-26T14:40:07.410Z,60.83
2023-03-26T14:42:55.927Z,59.88
2023-03-26T14:45:53.758Z,65.97
2023-03-26T14:48:51.429Z,60.90
2023-03-26T14:51:48.555Z,60.08
2023-03-26T14:54:25.360Z,57.53
2023-03-26T14:57:26.513Z,62.65
2023-03-26T15:00:35.526Z,60.55
2023-03-26T15:03:44.338Z,63.25
2023-03-26T15:06:46.864Z,63.08
2023-03-26T15:09:55.743Z,65.55
2023-03-26T15:13:05.146Z,76.35
2023-03-26T15:16:11.084Z,78.53
2023-03-26T15:19:20.407Z,80.63
2023-03-26T15:22:29.220Z,70.03
2023-03-26T15:25:38.130Z,82.35
2023-03-26T15:28:47.478Z,80.25
2023-03-26T15:31:56.265Z,81.90
2023-03-26T15:35:02.251Z,76.85
2023-03-26T15:38:10.999Z,87.20
2023-03-26T15:41:13.039Z,71.10
2023-03-26T15:44:22.819Z,77.30
2023-03-26T15:47:03.841Z,74.68
2023-03-26T15:49:57.033Z,74.63
2023-03-26T15:52:38.152Z,71.70
2023-03-26T15:55:32.786Z,75.25
2023-03-26T15:58:25.720Z,78.40
2023-03-26T16:01:35.599Z,73.10
2023-03-26T16:04:50.346Z,73.22
2023-03-26T16:08:00.363Z,74.35
2023-03-26T16:11:09.825Z,75.70
2023-03-26T16:14:10.170Z,73.07
2023-03-26T16:17:00.837Z,70.30
2023-03-26T16:20:09.972Z,72.15
2023-03-26T16:23:03.604Z,71.38
2023-03-26T16:25:36.395Z,69.72
2023-03-26T16:28:30.526Z,74.68
2023-03-26T16:31:37.924Z,71.70
2023-03-26T16:34:30.181Z,72.63
2023-03-26T16:37:01.640Z,70.53
2023-03-26T16:39:45.331Z,71.40
2023-03-26T16:42:41.347Z,71.00
2023-03-26T16:45:31.624Z,72.55
2023-03-26T16:48:32.396Z,83.75
2023-03-26T16:51:41.503Z,82.28
2023-03-26T16:54:50.231Z,96.70
2023-03-26T16:57:35.825Z,79.15
2023-03-26T17:00:31.064Z,81.05
2023-03-26T17:03:35.705Z,73.97
2023-03-26T17:06:09.863Z,74.05
2023-03-26T17:09:00.229Z,73.15
2023-03-26T17:11:56.744Z,71.00
2023-03-26T17:15:07.641Z,79.85
2023-03-26T17:18:04.921Z,83.68
2023-03-26T17:20:59.419Z,83.15
2023-03-26T17:23:47.843Z,74.93
2023-03-26T17:26:56.897Z,80.35
2023-03-26T17:30:02.332Z,82.13
2023-03-26T17:33:11.194Z,77.57
2023-03-26T17:35:47.771Z,71.85
2023-03-26T17:38:56.485Z,76.00
2023-03-26T17:41:54.458Z,75.68
2023-03-26T17:44:46.724Z,79.70
2023-03-26T17:47:29.327Z,76.82
2023-03-26T17:50:31.579Z,78.75
2023-03-26T17:53:23.046Z,84.63
2023-03-26T17:55:54.108Z,76.57
2023-03-26T17:58:37.136Z,77.25
2023-03-26T18:01:28.861Z,74.03
2023-03-26T18:04:02.087Z,80.63
2023-03-26T18:07:06.944Z,80.88
2023-03-26T18:10:14.580Z,77.75
2023-03-26T18:13:23.415Z,82.78
2023-03-26T18:16:15.911Z,81.18
2023-03-26T18:18:59.660Z,87.18
2023-03-26T18:21:39.161Z,89.00
2023-03-26T18:24:15.504Z,89.53
2023-03-26T18:26:55.870Z,87.82
2023-03-26T18:29:31.048Z,93.85
2023-03-26T18:32:04.207Z,93.15
2023-03-26T18:34:35.838Z,91.88
2023-03-26T18:37:30.575Z,88.55
2023-03-26T18:40:21.886Z,91.18
2023-03-26T18:43:00.478Z,93.05
2023-03-26T18:45:38.965Z,86.65
2023-03-26T18:48:22.994Z,94.18
2023-03-26T18:50:59.079Z,89.88
2023-03-26T18:53:41.083Z,92.82
2023-03-26T18:56:49.983Z,95.90
2023-03-26T18:59:42.923Z,88.75
2023-03-26T19:02:16.185Z,91.28
2023-03-26T19:04:47.355Z,90.00
2023-03-26T19:07:24.453Z,90.78
2023-03-26T19:09:58.024Z,94.17
2023-03-26T19:12:37.358Z,91.28
2023-03-26T19:15:18.878Z,90.63
2023-03-26T19:17:53.113Z,85.22
2023-03-26T19:20:29.694Z,85.00
2023-03-26T19:23:00.321Z,82.45
2023-03-26T19:25:41.784Z,87.38
2023-03-26T19:28:37.388Z,90.63
2023-03-26T19:31:34.548Z,94.53
2023-03-26T19:34:27.852Z,102.60
2023-03-26T19:37:01.059Z,97.50
2023-03-26T19:39:48.184Z,98.18
2023-03-26T19:42:23.104Z,105.13
2023-03-26T19:44:53.706Z,118.63
2023-03-26T19:47:35.552Z,121.97
2023-03-26T19:50:35.160Z,122.30
2023-03-26T19:53:30.008Z,121.15
2023-03-26T19:56:20.386Z,110.72
2023-03-26T19:58:51.687Z,111.95
2023-03-26T20:01:25.350Z,112.40
2023-03-26T20:03:59.458Z,110.75
2023-03-26T20:06:43.199Z,118.68
2023-03-26T20:09:14.924Z,116.63
2023-03-26T20:11:44.684Z,103.72
2023-03-26T20:14:19.797Z,105.35
2023-03-26T20:16:49.549Z,111.25
2023-03-26T20:19:19.271Z,105.80
2023-03-26T20:21:48.973Z,103.18
2023-03-26T20:24:21.024Z,104.88
2023-03-26T20:26:50.726Z,107.35
2023-03-26T20:29:21.494Z,111.68
2023-03-26T20:31:51.674Z,99.60
2023-03-26T20:34:26.174Z,104.95
2023-03-26T20:37:01.310Z,104.68
2023-03-26T20:39:31.570Z,116.50
2023-03-26T20:42:01.216Z,116.30
2023-03-26T20:44:30.903Z,113.43
2023-03-26T20:47:00.795Z,117.70
2023-03-26T20:49:31.066Z,118.43
2023-03-26T20:52:02.136Z,108.47
2023-03-26T20:54:32.002Z,119.47
2023-03-26T20:57:01.759Z,118.07
2023-03-26T20:59:31.993Z,116.00
2023-03-26T21:02:01.969Z,122.70
2023-03-26T21:04:31.786Z,117.43
2023-03-26T21:07:11.077Z,104.15
2023-03-26T21:09:46.500Z,113.57
2023-03-26T21:12:35.720Z,118.45
2023-03-26T21:15:13.506Z,107.10
2023-03-26T21:17:52.795Z,111.32
2023-03-26T21:20:23.307Z,112.78
2023-03-26T21:23:18.785Z,120.70
2023-03-26T21:26:20.654Z,120.85
2023-03-26T21:28:51.657Z,113.18
2023-03-26T21:31:25.727Z,119.65
2023-03-26T21:33:56.905Z,124.13
2023-03-26T21:36:26.915Z,122.60
2023-03-26T21:38:57.309Z,125.88
2023-03-26T21:41:37.627Z,123.72
2023-03-26T21:44:07.362Z,129.75
2023-03-26T21:46:37.529Z,123.30
2023-03-26T21:49:07.663Z,128.02
2023-03-26T21:51:38.099Z,121.15
2023-03-26T21:54:26.216Z,123.15
2023-03-26T21:57:14.096Z,118.25
2023-03-26T22:02:42.244Z,121.65
2023-03-26T22:05:25.432Z,106.07
2023-03-26T22:08:06.015Z,116.63
2023-03-26T22:10:35.824Z,110.47
2023-03-26T22:13:05.438Z,100.18
2023-03-26T22:15:35.697Z,106.85
2023-03-26T22:18:06.266Z,110.60
2023-03-26T22:20:36.154Z,107.90
2023-03-26T22:23:07.382Z,115.32
2023-03-26T22:25:37.464Z,116.45
2023-03-26T22:28:07.665Z,114.30
2023-03-26T22:30:37.414Z,109.60
2023-03-26T22:33:07.507Z,109.43
2023-03-26T22:35:37.226Z,117.78
2023-03-26T22:38:07.500Z,110.32
2023-03-26T22:40:37.317Z,118.45
2023-03-26T22:43:06.994Z,117.40
2023-03-26T22:45:36.852Z,125.30
2023-03-26T22:48:06.604Z,116.03
2023-03-26T22:50:36.517Z,114.95
2023-03-26T22:53:06.576Z,114.63
2023-03-26T22:55:36.189Z,118.53
2023-03-26T22:58:05.879Z,110.47
2023-03-26T23:00:36.507Z,115.68
2023-03-26T23:03:06.250Z,117.07
2023-03-26T23:05:36.449Z,107.32
2023-03-26T23:08:06.558Z,111.38
2023-03-26T23:10:38.017Z,136.95
2023-03-26T23:13:07.811Z,103.78
2023-03-26T23:15:38.608Z,120.82
2023-03-26T23:18:08.973Z,114.72
2023-03-26T23:20:41.670Z,129.65
2023-03-26T23:23:11.548Z,137.70
2023-03-26T23:25:42.383Z,128.40
2023-03-26T23:28:12.553Z,156.32
2023-03-26T23:30:42.217Z,141.23
2023-03-26T23:33:12.926Z,125.45
2023-03-26T23:35:45.826Z,125.35
2023-03-26T23:38:15.596Z,145.05
2023-03-26T23:40:56.973Z,128.50
2023-03-26T23:43:28.323Z,139.23
2023-03-26T23:45:59.863Z,126.50
2023-03-26T23:48:31.172Z,137.88
2023-03-26T23:51:03.916Z,123.75
2023-03-26T23:53:34.862Z,123.75
2023-03-26T23:56:05.383Z,119.18
2023-03-26T23:58:35.133Z,118.60
